sensor_id;sensor_type;location;lat;lon;timestamp;temperature;humidity
26262;DHT22;13988;52.446;13.280;2022-10-31T00:00:17;10.30;99.90
26262;DHT22;13988;52.446;13.280;2022-10-31T00:02:43;10.20;99.90
26262;DHT22;13988;52.446;13.280;2022-10-31T00:05:09;10.30;99.90
26262;DHT22;13988;52.446;13.280;2022-10-31T00:07:34;10.20;99.90
26262;DHT22;13988;52.446;13.280;2022-10-31T00:10:00;10.20;99.90
26262;DHT22;13988;52.446;13.280;2022-10-31T00:12:26;10.20;99.90
26262;DHT22;13988;52.446;13.280;2022-10-31T00:14:51;10.20;99.90
26262;DHT22;13988;52.446;13.280;2022-10-31T00:17:17;10.20;99.90
26262;DHT22;13988;52.446;13.280;2022-10-31T00:19:42;10.20;99.90
26262;DHT22;13988;52.446;13.280;2022-10-31T00:22:08;10.20;99.90
26262;DHT22;13988;52.446;13.280;2022-10-31T00:24:34;10.20;99.90
26262;DHT22;13988;52.446;13.280;2022-10-31T00:26:59;10.20;99.90
26262;DHT22;13988;52.446;13.280;2022-10-31T00:29:25;10.20;99.90
26262;DHT22;13988;52.446;13.280;2022-10-31T00:31:52;10.10;99.90
26262;DHT22;13988;52.446;13.280;2022-10-31T00:34:17;10.10;99.90
26262;DHT22;13988;52.446;13.280;2022-10-31T00:36:43;10.10;99.90
26262;DHT22;13988;52.446;13.280;2022-10-31T00:39:08;10.10;99.90
26262;DHT22;13988;52.446;13.280;2022-10-31T00:41:34;10.10;99.90
26262;DHT22;13988;52.446;13.280;2022-10-31T00:44:00;10.10;99.90
26262;DHT22;13988;52.446;13.280;2022-10-31T00:46:25;10.10;99.90
26262;DHT22;13988;52.446;13.280;2022-10-31T00:48:51;10.10;99.90
26262;DHT22;13988;52.446;13.280;2022-10-31T00:51:16;10.00;99.90
26262;DHT22;13988;52.446;13.280;2022-10-31T00:53:42;10.00;99.90
26262;DHT22;13988;52.446;13.280;2022-10-31T00:56:07;10.00;99.90
26262;DHT22;13988;52.446;13.280;2022-10-31T00:58:33;10.00;99.90
26262;DHT22;13988;52.446;13.280;2022-10-31T01:00:58;10.00;99.90
26262;DHT22;13988;52.446;13.280;2022-10-31T01:03:26;10.00;99.90
26262;DHT22;13988;52.446;13.280;2022-10-31T01:06:18;10.00;99.90
26262;DHT22;13988;52.446;13.280;2022-10-31T01:08:44;10.00;99.90
26262;DHT22;13988;52.446;13.280;2022-10-31T01:11:12;10.00;99.90
26262;DHT22;13988;52.446;13.280;2022-10-31T01:13:39;9.90;99.90
26262;DHT22;13988;52.446;13.280;2022-10-31T01:16:06;9.90;99.90
26262;DHT22;13988;52.446;13.280;2022-10-31T01:18:32;9.90;99.90
26262;DHT22;13988;52.446;13.280;2022-10-31T01:23:27;9.90;99.90
26262;DHT22;13988;52.446;13.280;2022-10-31T01:26:16;9.80;99.90
26262;DHT22;13988;52.446;13.280;2022-10-31T01:31:14;9.80;99.90
26262;DHT22;13988;52.446;13.280;2022-10-31T01:33:39;9.80;99.90
26262;DHT22;13988;52.446;13.280;2022-10-31T01:36:32;9.90;99.90
26262;DHT22;13988;52.446;13.280;2022-10-31T01:39:01;9.80;99.90
26262;DHT22;13988;52.446;13.280;2022-10-31T01:41:30;9.80;99.90
26262;DHT22;13988;52.446;13.280;2022-10-31T01:44:01;9.80;99.90
26262;DHT22;13988;52.446;13.280;2022-10-31T01:46:36;9.80;99.90
26262;DHT22;13988;52.446;13.280;2022-10-31T01:49:05;9.80;99.90
26262;DHT22;13988;52.446;13.280;2022-10-31T01:51:36;9.80;99.90
26262;DHT22;13988;52.446;13.280;2022-10-31T01:54:06;9.70;99.90
26262;DHT22;13988;52.446;13.280;2022-10-31T01:56:35;9.80;99.90
26262;DHT22;13988;52.446;13.280;2022-10-31T01:59:06;9.80;99.90
26262;DHT22;13988;52.446;13.280;2022-10-31T02:01:32;9.80;99.90
26262;DHT22;13988;52.446;13.280;2022-10-31T02:03:58;9.80;99.90
26262;DHT22;13988;52.446;13.280;2022-10-31T02:06:35;9.70;99.90
26262;DHT22;13988;52.446;13.280;2022-10-31T02:09:04;9.60;99.90
26262;DHT22;13988;52.446;13.280;2022-10-31T02:11:30;9.60;99.90
26262;DHT22;13988;52.446;13.280;2022-10-31T02:13:57;9.60;99.90
26262;DHT22;13988;52.446;13.280;2022-10-31T02:16:23;9.60;99.90
26262;DHT22;13988;52.446;13.280;2022-10-31T02:18:49;9.60;99.90
26262;DHT22;13988;52.446;13.280;2022-10-31T02:21:32;9.60;99.90
26262;DHT22;13988;52.446;13.280;2022-10-31T02:29:57;9.60;99.90
26262;DHT22;13988;52.446;13.280;2022-10-31T02:35:34;9.50;99.90
26262;DHT22;13988;52.446;13.280;2022-10-31T02:38:07;9.50;99.90
26262;DHT22;13988;52.446;13.280;2022-10-31T02:40:53;9.50;99.90
26262;DHT22;13988;52.446;13.280;2022-10-31T02:43:57;9.50;99.90
26262;DHT22;13988;52.446;13.280;2022-10-31T02:48:53;9.50;99.90
26262;DHT22;13988;52.446;13.280;2022-10-31T02:51:20;9.50;99.90
26262;DHT22;13988;52.446;13.280;2022-10-31T02:53:46;9.50;99.90
26262;DHT22;13988;52.446;13.280;2022-10-31T02:56:14;9.40;99.90
26262;DHT22;13988;52.446;13.280;2022-10-31T03:02:10;9.40;99.90
26262;DHT22;13988;52.446;13.280;2022-10-31T03:04:43;9.40;99.90
26262;DHT22;13988;52.446;13.280;2022-10-31T03:07:30;9.40;99.90
26262;DHT22;13988;52.446;13.280;2022-10-31T03:10:10;9.40;99.90
26262;DHT22;13988;52.446;13.280;2022-10-31T03:12:40;9.30;99.90
26262;DHT22;13988;52.446;13.280;2022-10-31T03:20:39;9.30;99.90
26262;DHT22;13988;52.446;13.280;2022-10-31T03:23:09;9.30;99.90
26262;DHT22;13988;52.446;13.280;2022-10-31T03:25:37;9.30;99.90
26262;DHT22;13988;52.446;13.280;2022-10-31T03:28:05;9.20;99.90
26262;DHT22;13988;52.446;13.280;2022-10-31T03:30:33;9.20;99.90
26262;DHT22;13988;52.446;13.280;2022-10-31T03:33:02;9.20;99.90
26262;DHT22;13988;52.446;13.280;2022-10-31T03:35:30;9.20;99.90
26262;DHT22;13988;52.446;13.280;2022-10-31T03:37:59;9.20;99.90
26262;DHT22;13988;52.446;13.280;2022-10-31T03:40:27;9.10;99.90
26262;DHT22;13988;52.446;13.280;2022-10-31T03:43:06;9.10;99.90
26262;DHT22;13988;52.446;13.280;2022-10-31T03:45:38;9.10;99.90
26262;DHT22;13988;52.446;13.280;2022-10-31T03:48:05;9.20;99.90
26262;DHT22;13988;52.446;13.280;2022-10-31T03:50:45;9.10;99.90
26262;DHT22;13988;52.446;13.280;2022-10-31T03:53:40;9.10;99.90
26262;DHT22;13988;52.446;13.280;2022-10-31T03:56:19;9.10;99.90
26262;DHT22;13988;52.446;13.280;2022-10-31T03:58:58;9.10;99.90
26262;DHT22;13988;52.446;13.280;2022-10-31T04:01:26;9.10;99.90
26262;DHT22;13988;52.446;13.280;2022-10-31T04:03:54;9.00;99.90
26262;DHT22;13988;52.446;13.280;2022-10-31T04:06:21;9.00;99.90
26262;DHT22;13988;52.446;13.280;2022-10-31T04:08:52;9.00;99.90
26262;DHT22;13988;52.446;13.280;2022-10-31T04:11:22;9.00;99.90
26262;DHT22;13988;52.446;13.280;2022-10-31T04:13:49;9.00;99.90
26262;DHT22;13988;52.446;13.280;2022-10-31T04:16:16;8.90;99.90
26262;DHT22;13988;52.446;13.280;2022-10-31T04:18:42;8.90;99.90
26262;DHT22;13988;52.446;13.280;2022-10-31T04:21:08;9.00;99.90
26262;DHT22;13988;52.446;13.280;2022-10-31T04:23:35;8.90;99.90
26262;DHT22;13988;52.446;13.280;2022-10-31T04:26:01;9.00;99.90
26262;DHT22;13988;52.446;13.280;2022-10-31T04:28:26;8.90;99.90
26262;DHT22;13988;52.446;13.280;2022-10-31T04:30:52;8.90;99.90
26262;DHT22;13988;52.446;13.280;2022-10-31T04:33:18;8.90;99.90
26262;DHT22;13988;52.446;13.280;2022-10-31T04:35:44;8.90;99.90
26262;DHT22;13988;52.446;13.280;2022-10-31T04:38:10;8.90;99.90
26262;DHT22;13988;52.446;13.280;2022-10-31T04:40:35;8.90;99.90
26262;DHT22;13988;52.446;13.280;2022-10-31T04:43:01;8.80;99.90
26262;DHT22;13988;52.446;13.280;2022-10-31T04:45:26;8.80;99.90
26262;DHT22;13988;52.446;13.280;2022-10-31T04:47:52;8.80;99.90
26262;DHT22;13988;52.446;13.280;2022-10-31T04:50:18;8.80;99.90
26262;DHT22;13988;52.446;13.280;2022-10-31T04:52:45;8.80;99.90
26262;DHT22;13988;52.446;13.280;2022-10-31T04:55:11;8.80;99.90
26262;DHT22;13988;52.446;13.280;2022-10-31T04:57:44;8.80;99.90
26262;DHT22;13988;52.446;13.280;2022-10-31T05:00:11;8.70;99.90
26262;DHT22;13988;52.446;13.280;2022-10-31T05:03:03;8.70;99.90
26262;DHT22;13988;52.446;13.280;2022-10-31T05:05:31;8.70;99.90
26262;DHT22;13988;52.446;13.280;2022-10-31T05:07:56;8.70;99.90
26262;DHT22;13988;52.446;13.280;2022-10-31T05:10:24;8.80;99.90
26262;DHT22;13988;52.446;13.280;2022-10-31T05:12:58;8.80;99.90
26262;DHT22;13988;52.446;13.280;2022-10-31T05:15:25;8.80;99.90
26262;DHT22;13988;52.446;13.280;2022-10-31T05:17:51;8.80;99.90
26262;DHT22;13988;52.446;13.280;2022-10-31T05:20:19;8.80;99.90
26262;DHT22;13988;52.446;13.280;2022-10-31T05:22:47;8.80;99.90
26262;DHT22;13988;52.446;13.280;2022-10-31T05:25:13;8.80;99.90
26262;DHT22;13988;52.446;13.280;2022-10-31T05:27:44;8.80;99.90
26262;DHT22;13988;52.446;13.280;2022-10-31T05:30:11;8.80;99.90
26262;DHT22;13988;52.446;13.280;2022-10-31T05:32:41;8.80;99.90
26262;DHT22;13988;52.446;13.280;2022-10-31T05:35:09;8.80;99.90
26262;DHT22;13988;52.446;13.280;2022-10-31T05:37:35;8.80;99.90
26262;DHT22;13988;52.446;13.280;2022-10-31T05:40:02;8.80;99.90
26262;DHT22;13988;52.446;13.280;2022-10-31T05:42:28;8.80;99.90
26262;DHT22;13988;52.446;13.280;2022-10-31T05:44:53;8.80;99.90
26262;DHT22;13988;52.446;13.280;2022-10-31T05:47:19;8.80;99.90
26262;DHT22;13988;52.446;13.280;2022-10-31T05:49:44;8.80;99.90
26262;DHT22;13988;52.446;13.280;2022-10-31T05:52:10;8.80;99.90
26262;DHT22;13988;52.446;13.280;2022-10-31T05:54:35;8.80;99.90
26262;DHT22;13988;52.446;13.280;2022-10-31T05:57:01;8.80;99.90
26262;DHT22;13988;52.446;13.280;2022-10-31T05:59:26;8.90;99.90
26262;DHT22;13988;52.446;13.280;2022-10-31T06:01:52;8.90;99.90
26262;DHT22;13988;52.446;13.280;2022-10-31T06:04:17;8.90;99.90
26262;DHT22;13988;52.446;13.280;2022-10-31T06:06:43;8.90;99.90
26262;DHT22;13988;52.446;13.280;2022-10-31T06:09:08;8.80;99.90
26262;DHT22;13988;52.446;13.280;2022-10-31T06:11:34;8.80;99.90
26262;DHT22;13988;52.446;13.280;2022-10-31T06:14:00;8.90;99.90
26262;DHT22;13988;52.446;13.280;2022-10-31T06:16:25;8.90;99.90
26262;DHT22;13988;52.446;13.280;2022-10-31T06:18:51;8.90;99.90
26262;DHT22;13988;52.446;13.280;2022-10-31T06:21:17;8.90;99.90
26262;DHT22;13988;52.446;13.280;2022-10-31T06:23:42;8.90;99.90
26262;DHT22;13988;52.446;13.280;2022-10-31T06:26:08;8.90;99.90
26262;DHT22;13988;52.446;13.280;2022-10-31T06:28:33;8.90;99.90
26262;DHT22;13988;52.446;13.280;2022-10-31T06:30:59;8.90;99.90
26262;DHT22;13988;52.446;13.280;2022-10-31T06:33:24;9.00;99.90
26262;DHT22;13988;52.446;13.280;2022-10-31T06:35:50;9.10;99.90
26262;DHT22;13988;52.446;13.280;2022-10-31T06:38:16;9.20;99.90
26262;DHT22;13988;52.446;13.280;2022-10-31T06:40:41;9.20;99.90
26262;DHT22;13988;52.446;13.280;2022-10-31T06:43:07;9.20;99.90
26262;DHT22;13988;52.446;13.280;2022-10-31T06:45:32;9.20;99.90
26262;DHT22;13988;52.446;13.280;2022-10-31T06:47:58;9.30;99.90
26262;DHT22;13988;52.446;13.280;2022-10-31T06:50:23;9.30;99.90
26262;DHT22;13988;52.446;13.280;2022-10-31T06:52:54;9.30;99.90
26262;DHT22;13988;52.446;13.280;2022-10-31T06:55:20;9.30;99.90
26262;DHT22;13988;52.446;13.280;2022-10-31T06:57:56;9.40;99.90
26262;DHT22;13988;52.446;13.280;2022-10-31T07:00:22;9.70;99.90
26262;DHT22;13988;52.446;13.280;2022-10-31T07:03:02;9.60;99.90
26262;DHT22;13988;52.446;13.280;2022-10-31T07:05:28;9.80;99.90
26262;DHT22;13988;52.446;13.280;2022-10-31T07:07:56;10.30;99.90
26262;DHT22;13988;52.446;13.280;2022-10-31T07:10:23;10.30;99.90
26262;DHT22;13988;52.446;13.280;2022-10-31T07:12:58;10.70;99.90
26262;DHT22;13988;52.446;13.280;2022-10-31T07:15:25;11.00;99.90
26262;DHT22;13988;52.446;13.280;2022-10-31T07:17:50;11.10;99.90
26262;DHT22;13988;52.446;13.280;2022-10-31T07:20:16;11.40;99.90
26262;DHT22;13988;52.446;13.280;2022-10-31T07:22:42;11.50;99.90
26262;DHT22;13988;52.446;13.280;2022-10-31T07:25:08;11.70;99.90
26262;DHT22;13988;52.446;13.280;2022-10-31T07:27:42;11.90;99.90
26262;DHT22;13988;52.446;13.280;2022-10-31T07:30:09;12.10;99.90
26262;DHT22;13988;52.446;13.280;2022-10-31T07:33:01;12.20;99.90
26262;DHT22;13988;52.446;13.280;2022-10-31T07:35:28;12.40;99.90
26262;DHT22;13988;52.446;13.280;2022-10-31T07:37:54;12.40;99.90
26262;DHT22;13988;52.446;13.280;2022-10-31T07:40:20;12.60;99.90
26262;DHT22;13988;52.446;13.280;2022-10-31T07:42:48;12.50;99.90
26262;DHT22;13988;52.446;13.280;2022-10-31T07:45:19;12.60;99.90
26262;DHT22;13988;52.446;13.280;2022-10-31T07:47:47;12.60;99.90
26262;DHT22;13988;52.446;13.280;2022-10-31T07:50:15;12.80;99.90
26262;DHT22;13988;52.446;13.280;2022-10-31T07:52:41;12.80;99.90
26262;DHT22;13988;52.446;13.280;2022-10-31T07:55:07;12.80;99.90
26262;DHT22;13988;52.446;13.280;2022-10-31T07:57:33;12.80;99.90
26262;DHT22;13988;52.446;13.280;2022-10-31T07:59:59;12.90;99.90
26262;DHT22;13988;52.446;13.280;2022-10-31T08:02:25;12.90;99.90
26262;DHT22;13988;52.446;13.280;2022-10-31T08:04:51;12.90;99.90
26262;DHT22;13988;52.446;13.280;2022-10-31T08:07:17;12.90;99.90
26262;DHT22;13988;52.446;13.280;2022-10-31T08:09:43;12.90;99.90
26262;DHT22;13988;52.446;13.280;2022-10-31T08:12:09;12.90;99.90
26262;DHT22;13988;52.446;13.280;2022-10-31T08:14:35;12.90;99.90
26262;DHT22;13988;52.446;13.280;2022-10-31T08:17:00;12.90;99.90
26262;DHT22;13988;52.446;13.280;2022-10-31T08:19:26;13.00;99.90
26262;DHT22;13988;52.446;13.280;2022-10-31T08:21:52;13.00;99.90
26262;DHT22;13988;52.446;13.280;2022-10-31T08:24:20;13.00;99.90
26262;DHT22;13988;52.446;13.280;2022-10-31T08:26:46;13.00;99.90
26262;DHT22;13988;52.446;13.280;2022-10-31T08:29:11;13.00;99.90
26262;DHT22;13988;52.446;13.280;2022-10-31T08:31:37;13.00;99.90
26262;DHT22;13988;52.446;13.280;2022-10-31T08:34:03;13.00;99.90
26262;DHT22;13988;52.446;13.280;2022-10-31T08:36:28;13.00;99.90
26262;DHT22;13988;52.446;13.280;2022-10-31T08:38:55;13.00;99.90
26262;DHT22;13988;52.446;13.280;2022-10-31T08:41:21;13.10;99.90
26262;DHT22;13988;52.446;13.280;2022-10-31T08:43:46;13.10;99.90
26262;DHT22;13988;52.446;13.280;2022-10-31T08:46:12;13.10;99.90
26262;DHT22;13988;52.446;13.280;2022-10-31T08:48:38;13.10;99.90
26262;DHT22;13988;52.446;13.280;2022-10-31T08:51:03;13.10;99.90
26262;DHT22;13988;52.446;13.280;2022-10-31T08:53:29;13.10;99.90
26262;DHT22;13988;52.446;13.280;2022-10-31T08:55:56;13.10;99.90
26262;DHT22;13988;52.446;13.280;2022-10-31T08:58:22;13.10;99.90
26262;DHT22;13988;52.446;13.280;2022-10-31T09:00:51;13.10;99.90
26262;DHT22;13988;52.446;13.280;2022-10-31T09:03:19;13.20;99.90
26262;DHT22;13988;52.446;13.280;2022-10-31T09:05:44;13.20;99.90
26262;DHT22;13988;52.446;13.280;2022-10-31T09:08:11;13.20;99.90
26262;DHT22;13988;52.446;13.280;2022-10-31T09:10:37;13.20;99.90
26262;DHT22;13988;52.446;13.280;2022-10-31T09:13:09;13.10;99.90
26262;DHT22;13988;52.446;13.280;2022-10-31T09:15:36;13.10;99.90
26262;DHT22;13988;52.446;13.280;2022-10-31T09:18:04;13.10;99.90
26262;DHT22;13988;52.446;13.280;2022-10-31T09:20:31;13.20;99.90
26262;DHT22;13988;52.446;13.280;2022-10-31T09:22:58;13.30;99.90
26262;DHT22;13988;52.446;13.280;2022-10-31T09:25:24;13.40;99.90
26262;DHT22;13988;52.446;13.280;2022-10-31T09:27:50;13.60;99.90
26262;DHT22;13988;52.446;13.280;2022-10-31T09:30:15;13.40;99.90
26262;DHT22;13988;52.446;13.280;2022-10-31T09:32:42;13.50;99.90
26262;DHT22;13988;52.446;13.280;2022-10-31T09:35:08;13.50;99.90
26262;DHT22;13988;52.446;13.280;2022-10-31T09:37:33;13.60;99.90
26262;DHT22;13988;52.446;13.280;2022-10-31T09:39:59;13.50;99.90
26262;DHT22;13988;52.446;13.280;2022-10-31T09:45:18;13.70;99.90
26262;DHT22;13988;52.446;13.280;2022-10-31T09:48:09;13.60;99.90
26262;DHT22;13988;52.446;13.280;2022-10-31T09:53:32;13.80;99.90
26262;DHT22;13988;52.446;13.280;2022-10-31T09:55:59;13.90;99.90
26262;DHT22;13988;52.446;13.280;2022-10-31T09:58:29;14.00;99.90
26262;DHT22;13988;52.446;13.280;2022-10-31T10:00:59;14.20;99.90
26262;DHT22;13988;52.446;13.280;2022-10-31T10:03:45;14.30;99.90
26262;DHT22;13988;52.446;13.280;2022-10-31T10:06:27;14.30;99.90
26262;DHT22;13988;52.446;13.280;2022-10-31T10:08:55;14.50;99.90
26262;DHT22;13988;52.446;13.280;2022-10-31T10:11:32;14.50;99.90
26262;DHT22;13988;52.446;13.280;2022-10-31T10:16:55;14.60;99.90
26262;DHT22;13988;52.446;13.280;2022-10-31T10:22:12;14.50;99.90
26262;DHT22;13988;52.446;13.280;2022-10-31T10:30:22;14.80;99.90
26262;DHT22;13988;52.446;13.280;2022-10-31T10:32:52;14.90;99.90
26262;DHT22;13988;52.446;13.280;2022-10-31T10:35:32;15.00;99.90
26262;DHT22;13988;52.446;13.280;2022-10-31T10:38:04;15.10;99.90
26262;DHT22;13988;52.446;13.280;2022-10-31T10:40:35;15.20;99.90
26262;DHT22;13988;52.446;13.280;2022-10-31T10:43:23;15.30;99.90
26262;DHT22;13988;52.446;13.280;2022-10-31T10:46:16;15.40;99.90
26262;DHT22;13988;52.446;13.280;2022-10-31T11:00:38;15.70;99.90
26262;DHT22;13988;52.446;13.280;2022-10-31T11:03:04;15.80;99.90
26262;DHT22;13988;52.446;13.280;2022-10-31T11:05:58;15.90;99.90
26262;DHT22;13988;52.446;13.280;2022-10-31T11:08:29;16.00;99.90
26262;DHT22;13988;52.446;13.280;2022-10-31T11:11:13;16.10;99.90
26262;DHT22;13988;52.446;13.280;2022-10-31T11:13:48;16.10;99.90
26262;DHT22;13988;52.446;13.280;2022-10-31T11:16:28;16.20;99.90
26262;DHT22;13988;52.446;13.280;2022-10-31T11:19:13;16.40;99.90
26262;DHT22;13988;52.446;13.280;2022-10-31T11:21:40;16.60;99.90
26262;DHT22;13988;52.446;13.280;2022-10-31T11:26:35;16.70;99.90
26262;DHT22;13988;52.446;13.280;2022-10-31T11:29:04;16.90;99.90
26262;DHT22;13988;52.446;13.280;2022-10-31T11:31:31;17.00;99.90
26262;DHT22;13988;52.446;13.280;2022-10-31T11:34:01;17.50;99.90
26262;DHT22;13988;52.446;13.280;2022-10-31T11:36:31;17.90;99.90
26262;DHT22;13988;52.446;13.280;2022-10-31T11:38:59;18.10;99.90
26262;DHT22;13988;52.446;13.280;2022-10-31T11:41:31;18.20;99.90
26262;DHT22;13988;52.446;13.280;2022-10-31T11:44:03;18.20;99.90
26262;DHT22;13988;52.446;13.280;2022-10-31T11:48:58;18.60;99.90
26262;DHT22;13988;52.446;13.280;2022-10-31T11:51:27;19.40;99.90
26262;DHT22;13988;52.446;13.280;2022-10-31T11:53:57;19.80;99.90
26262;DHT22;13988;52.446;13.280;2022-10-31T11:56:23;20.50;99.90
26262;DHT22;13988;52.446;13.280;2022-10-31T11:59:04;21.00;99.90
26262;DHT22;13988;52.446;13.280;2022-10-31T12:01:32;20.20;99.90
26262;DHT22;13988;52.446;13.280;2022-10-31T12:04:09;20.10;99.90
26262;DHT22;13988;52.446;13.280;2022-10-31T12:06:37;20.60;99.90
26262;DHT22;13988;52.446;13.280;2022-10-31T12:09:21;20.30;99.90
26262;DHT22;13988;52.446;13.280;2022-10-31T12:15:03;19.40;99.90
26262;DHT22;13988;52.446;13.280;2022-10-31T12:17:36;19.00;99.90
26262;DHT22;13988;52.446;13.280;2022-10-31T12:25:48;19.30;99.90
26262;DHT22;13988;52.446;13.280;2022-10-31T12:33:53;20.80;99.90
26262;DHT22;13988;52.446;13.280;2022-10-31T12:39:23;20.70;99.90
26262;DHT22;13988;52.446;13.280;2022-10-31T12:42:37;20.90;99.90
26262;DHT22;13988;52.446;13.280;2022-10-31T12:45:31;20.20;99.90
26262;DHT22;13988;52.446;13.280;2022-10-31T12:50:56;22.20;99.90
26262;DHT22;13988;52.446;13.280;2022-10-31T12:53:37;21.80;99.90
26262;DHT22;13988;52.446;13.280;2022-10-31T12:59:04;21.30;99.90
26262;DHT22;13988;52.446;13.280;2022-10-31T13:01:51;21.90;99.90
26262;DHT22;13988;52.446;13.280;2022-10-31T13:04:35;21.90;99.90
26262;DHT22;13988;52.446;13.280;2022-10-31T13:07:05;21.90;99.90
26262;DHT22;13988;52.446;13.280;2022-10-31T13:09:47;22.10;99.90
26262;DHT22;13988;52.446;13.280;2022-10-31T13:12:18;21.60;99.90
26262;DHT22;13988;52.446;13.280;2022-10-31T13:14:54;21.80;99.90
26262;DHT22;13988;52.446;13.280;2022-10-31T13:17:31;21.40;99.90
26262;DHT22;13988;52.446;13.280;2022-10-31T13:20:27;21.10;99.90
26262;DHT22;13988;52.446;13.280;2022-10-31T13:22:56;20.80;99.90
26262;DHT22;13988;52.446;13.280;2022-10-31T13:25:33;20.40;99.90
26262;DHT22;13988;52.446;13.280;2022-10-31T13:28:05;20.80;99.90
26262;DHT22;13988;52.446;13.280;2022-10-31T13:30:40;20.40;99.90
26262;DHT22;13988;52.446;13.280;2022-10-31T13:33:17;20.20;99.90
26262;DHT22;13988;52.446;13.280;2022-10-31T13:38:50;19.40;99.90
26262;DHT22;13988;52.446;13.280;2022-10-31T13:48:57;18.20;99.90
26262;DHT22;13988;52.446;13.280;2022-10-31T13:51:28;17.80;99.90
26262;DHT22;13988;52.446;13.280;2022-10-31T13:56:31;17.50;99.90
26262;DHT22;13988;52.446;13.280;2022-10-31T14:01:34;17.20;99.90
26262;DHT22;13988;52.446;13.280;2022-10-31T14:04:22;17.20;99.90
26262;DHT22;13988;52.446;13.280;2022-10-31T14:09:29;17.10;99.90
26262;DHT22;13988;52.446;13.280;2022-10-31T14:11:57;17.00;99.90
26262;DHT22;13988;52.446;13.280;2022-10-31T14:14:32;16.90;99.90
26262;DHT22;13988;52.446;13.280;2022-10-31T14:16:58;16.70;99.90
26262;DHT22;13988;52.446;13.280;2022-10-31T14:19:24;16.60;99.90
26262;DHT22;13988;52.446;13.280;2022-10-31T14:21:51;16.50;99.90
26262;DHT22;13988;52.446;13.280;2022-10-31T14:32:06;15.80;99.90
26262;DHT22;13988;52.446;13.280;2022-10-31T14:50:49;15.40;99.90
26262;DHT22;13988;52.446;13.280;2022-10-31T14:53:23;15.20;99.90
26262;DHT22;13988;52.446;13.280;2022-10-31T14:55:54;15.10;99.90
26262;DHT22;13988;52.446;13.280;2022-10-31T15:00:59;14.90;99.90
26262;DHT22;13988;52.446;13.280;2022-10-31T15:03:30;14.90;99.90
26262;DHT22;13988;52.446;13.280;2022-10-31T15:06:01;14.80;99.90
26262;DHT22;13988;52.446;13.280;2022-10-31T15:08:55;14.80;99.90
26262;DHT22;13988;52.446;13.280;2022-10-31T15:11:23;14.80;99.90
26262;DHT22;13988;52.446;13.280;2022-10-31T15:13:54;14.80;99.90
26262;DHT22;13988;52.446;13.280;2022-10-31T15:16:24;14.60;99.90
26262;DHT22;13988;52.446;13.280;2022-10-31T15:18:59;14.60;99.90
26262;DHT22;13988;52.446;13.280;2022-10-31T15:21:27;14.40;99.90
26262;DHT22;13988;52.446;13.280;2022-10-31T15:23:55;14.40;99.90
26262;DHT22;13988;52.446;13.280;2022-10-31T15:26:24;14.30;99.90
26262;DHT22;13988;52.446;13.280;2022-10-31T15:29:02;14.30;99.90
26262;DHT22;13988;52.446;13.280;2022-10-31T15:31:29;14.30;99.90
26262;DHT22;13988;52.446;13.280;2022-10-31T15:34:00;14.20;99.90
26262;DHT22;13988;52.446;13.280;2022-10-31T15:36:27;14.10;99.90
26262;DHT22;13988;52.446;13.280;2022-10-31T15:38:55;14.00;99.90
26262;DHT22;13988;52.446;13.280;2022-10-31T15:41:34;14.00;99.90
26262;DHT22;13988;52.446;13.280;2022-10-31T15:44:15;14.00;99.90
26262;DHT22;13988;52.446;13.280;2022-10-31T15:46:41;13.90;99.90
26262;DHT22;13988;52.446;13.280;2022-10-31T15:49:28;13.90;99.90
26262;DHT22;13988;52.446;13.280;2022-10-31T15:51:54;13.90;99.90
26262;DHT22;13988;52.446;13.280;2022-10-31T15:54:20;14.00;99.90
26262;DHT22;13988;52.446;13.280;2022-10-31T15:56:45;14.00;99.90
26262;DHT22;13988;52.446;13.280;2022-10-31T15:59:16;13.90;99.90
26262;DHT22;13988;52.446;13.280;2022-10-31T16:01:58;13.90;99.90
26262;DHT22;13988;52.446;13.280;2022-10-31T16:04:24;13.90;99.90
26262;DHT22;13988;52.446;13.280;2022-10-31T16:07:15;13.80;99.90
26262;DHT22;13988;52.446;13.280;2022-10-31T16:09:59;13.80;99.90
26262;DHT22;13988;52.446;13.280;2022-10-31T16:12:34;13.80;99.90
26262;DHT22;13988;52.446;13.280;2022-10-31T16:15:00;13.80;99.90
26262;DHT22;13988;52.446;13.280;2022-10-31T16:17:27;13.80;99.90
26262;DHT22;13988;52.446;13.280;2022-10-31T16:20:01;13.80;99.90
26262;DHT22;13988;52.446;13.280;2022-10-31T16:22:32;13.70;99.90
26262;DHT22;13988;52.446;13.280;2022-10-31T16:25:08;13.60;99.90
26262;DHT22;13988;52.446;13.280;2022-10-31T16:27:35;13.50;99.90
26262;DHT22;13988;52.446;13.280;2022-10-31T16:30:24;13.50;99.90
26262;DHT22;13988;52.446;13.280;2022-10-31T16:32:57;13.50;99.90
26262;DHT22;13988;52.446;13.280;2022-10-31T16:35:25;13.50;99.90
26262;DHT22;13988;52.446;13.280;2022-10-31T16:37:51;13.60;99.90
26262;DHT22;13988;52.446;13.280;2022-10-31T16:40:17;13.50;99.90
26262;DHT22;13988;52.446;13.280;2022-10-31T16:42:43;13.50;99.90
26262;DHT22;13988;52.446;13.280;2022-10-31T16:45:21;13.40;99.90
26262;DHT22;13988;52.446;13.280;2022-10-31T16:47:47;13.30;99.90
26262;DHT22;13988;52.446;13.280;2022-10-31T16:50:24;13.30;99.90
26262;DHT22;13988;52.446;13.280;2022-10-31T16:52:51;13.30;99.90
26262;DHT22;13988;52.446;13.280;2022-10-31T16:55:18;13.30;99.90
26262;DHT22;13988;52.446;13.280;2022-10-31T16:57:48;13.30;99.90
26262;DHT22;13988;52.446;13.280;2022-10-31T17:00:16;13.40;99.90
26262;DHT22;13988;52.446;13.280;2022-10-31T17:02:43;13.40;99.90
26262;DHT22;13988;52.446;13.280;2022-10-31T17:05:13;13.40;99.90
26262;DHT22;13988;52.446;13.280;2022-10-31T17:07:40;13.50;99.90
26262;DHT22;13988;52.446;13.280;2022-10-31T17:10:06;13.50;99.90
26262;DHT22;13988;52.446;13.280;2022-10-31T17:12:32;13.50;99.90
26262;DHT22;13988;52.446;13.280;2022-10-31T17:14:58;13.50;99.90
26262;DHT22;13988;52.446;13.280;2022-10-31T17:17:24;13.50;99.90
26262;DHT22;13988;52.446;13.280;2022-10-31T17:19:49;13.50;99.90
26262;DHT22;13988;52.446;13.280;2022-10-31T17:22:15;13.40;99.90
26262;DHT22;13988;52.446;13.280;2022-10-31T17:24:40;13.40;99.90
26262;DHT22;13988;52.446;13.280;2022-10-31T17:27:06;13.40;99.90
26262;DHT22;13988;52.446;13.280;2022-10-31T17:29:32;13.40;99.90
26262;DHT22;13988;52.446;13.280;2022-10-31T17:31:58;13.40;99.90
26262;DHT22;13988;52.446;13.280;2022-10-31T17:34:24;13.40;99.90
26262;DHT22;13988;52.446;13.280;2022-10-31T17:36:51;13.30;99.90
26262;DHT22;13988;52.446;13.280;2022-10-31T17:39:18;13.30;99.90
26262;DHT22;13988;52.446;13.280;2022-10-31T17:41:43;13.30;99.90
26262;DHT22;13988;52.446;13.280;2022-10-31T17:44:10;13.30;99.90